Time;durP1;ratioP1;P1;durP2;ratioP2;P2;SDS_P1;SDS_P2;PMS_P1;PMS_P2;Temp;Humidity;BMP_temperature;BMP_pressure;BME280_temperature;BME280_humidity;BME280_pressure;Samples;Min_cycle;Max_cycle;Signal;HPM_P1;HPM_P2
2021/07/27 00:00:55;;;;;;;13.13;9.48;;;;;;;19.97;60.59;98604.09;5032871;28;20116;-50
2021/07/27 00:03:21;;;;;;;12.25;7.28;;;;;;;19.73;61.32;98608.03;5032846;28;20017;-51
2021/07/27 00:05:47;;;;;;;15.20;10.45;;;;;;;19.74;61.78;98601.66;5032799;28;20453;-50
2021/07/27 00:08:13;;;;;;;10.77;7.15;;;;;;;19.93;61.35;98599.28;5032683;28;20061;-50
2021/07/27 00:10:38;;;;;;;8.25;5.28;;;;;;;19.95;60.87;98599.81;5032572;28;20064;-51
2021/07/27 00:13:05;;;;;;;12.68;11.32;;;;;;;19.77;61.34;98597.66;5032652;28;20396;-50
2021/07/27 00:15:32;;;;;;;9.93;6.43;;;;;;;19.53;62.15;98603.41;5032087;28;20068;-51
2021/07/27 00:17:58;;;;;;;15.32;9.30;;;;;;;19.39;62.76;98606.81;5032335;28;20037;-51
2021/07/27 00:20:25;;;;;;;8.85;6.10;;;;;;;19.61;62.62;98599.44;5047827;28;20033;-51
2021/07/27 00:22:50;;;;;;;12.20;9.88;;;;;;;19.63;61.99;98605.31;5032539;28;20079;-51
2021/07/27 00:25:16;;;;;;;12.05;9.50;;;;;;;19.62;62.24;98606.38;5032462;28;20434;-51
2021/07/27 00:27:45;;;;;;;10.10;6.88;;;;;;;19.80;62.14;98599.81;5047729;28;20095;-50
2021/07/27 00:30:12;;;;;;;9.70;7.15;;;;;;;20.02;61.66;98598.75;5047553;28;20026;-51
2021/07/27 00:32:40;;;;;;;12.13;8.25;;;;;;;20.37;60.95;98598.00;5032356;28;20069;-51
2021/07/27 00:35:06;;;;;;;9.45;6.72;;;;;;;20.30;60.30;98608.13;5032205;28;20025;-51
2021/07/27 00:37:34;;;;;;;10.25;7.00;;;;;;;19.99;60.94;98613.41;5032190;28;20025;-51
2021/07/27 00:40:02;;;;;;;11.65;9.60;;;;;;;20.11;61.26;98608.63;5032192;28;20052;-51
2021/07/27 00:42:30;;;;;;;17.83;9.93;;;;;;;20.54;60.47;98603.88;5032145;28;20500;-51
2021/07/27 00:44:57;;;;;;;10.18;8.95;;;;;;;20.87;59.17;98596.41;5032126;28;20021;-50
2021/07/27 00:47:23;;;;;;;48.92;44.30;;;;;;;21.01;58.65;98599.31;5032014;28;20519;-51
2021/07/27 00:49:50;;;;;;;109.53;100.63;;;;;;;21.23;58.38;98598.16;5047252;28;20048;-51
2021/07/27 00:52:15;;;;;;;11.05;9.00;;;;;;;21.21;57.79;98589.63;5031956;28;20022;-50
2021/07/27 00:54:43;;;;;;;32.67;29.90;;;;;;;21.10;57.95;98595.00;5032029;28;20021;-51
2021/07/27 00:57:09;;;;;;;11.52;8.75;;;;;;;20.94;58.24;98588.91;5031910;28;20495;-51
2021/07/27 00:59:35;;;;;;;11.85;7.10;;;;;;;20.99;58.00;98595.28;5031906;28;20036;-51
2021/07/27 01:02:00;;;;;;;7.80;6.85;;;;;;;20.95;57.77;98587.06;5031799;28;20017;-51
2021/07/27 01:04:26;;;;;;;15.55;10.93;;;;;;;21.07;58.10;98590.22;5031895;28;20041;-51
2021/07/27 01:06:52;;;;;;;12.35;9.23;;;;;;;21.33;57.32;98590.94;5031789;28;20033;-51
2021/07/27 01:09:17;;;;;;;10.18;5.72;;;;;;;21.35;56.60;98591.47;5031769;28;20486;-50
2021/07/27 01:11:44;;;;;;;13.35;10.40;;;;;;;21.06;57.05;98585.13;5047038;28;20025;-51
2021/07/27 01:14:10;;;;;;;9.43;6.32;;;;;;;20.74;57.69;98588.94;5030367;28;20065;-50
2021/07/27 01:16:36;;;;;;;8.38;5.43;;;;;;;20.49;58.24;98585.22;5031735;28;20022;-50
2021/07/27 01:42:03;;;;;;;10.13;7.70;;;;;;;20.01;59.51;98571.34;5035467;28;20042;-51
2021/07/27 01:43:40;;;;;;;15.52;10.40;;;;;;;19.90;59.64;98572.38;5035145;28;20036;-50
2021/07/27 01:46:07;;;;;;;9.10;6.38;;;;;;;19.63;60.14;98565.38;5050739;28;20025;-51
2021/07/27 01:48:33;;;;;;;14.40;10.65;;;;;;;19.36;60.79;98574.34;5035341;28;20411;-50
2021/07/27 01:51:05;;;;;;;11.98;6.18;;;;;;;19.56;61.18;98567.50;5050507;28;20095;-51
2021/07/27 01:53:46;;;;;;;8.35;6.13;;;;;;;19.45;61.08;98577.28;5035285;28;20403;-51
2021/07/27 01:56:12;;;;;;;22.88;17.27;;;;;;;19.59;61.07;98569.63;5035210;28;20045;-50
2021/07/27 01:58:38;;;;;;;8.27;6.40;;;;;;;19.55;60.68;98572.00;5035184;28;20446;-51
2021/07/27 02:01:04;;;;;;;18.15;16.20;;;;;;;19.34;61.13;98571.13;5050403;28;20109;-51
2021/07/27 02:03:29;;;;;;;12.85;5.75;;;;;;;19.40;61.35;98573.81;5033781;28;20167;-51
2021/07/27 02:05:55;;;;;;;17.42;15.80;;;;;;;19.38;61.28;98574.09;5035079;28;20025;-51
2021/07/27 02:08:21;;;;;;;7.18;6.03;;;;;;;19.40;61.55;98571.97;5035062;28;20018;-51
2021/07/27 02:10:52;;;;;;;12.43;8.07;;;;;;;19.47;61.22;98569.06;5034923;28;20021;-50
2021/07/27 02:13:26;;;;;;;10.63;8.05;;;;;;;19.42;61.01;98571.69;5035001;28;20511;-51
2021/07/27 02:15:52;;;;;;;8.50;6.35;;;;;;;19.46;61.26;98576.25;5034941;28;20029;-51
2021/07/27 02:18:18;;;;;;;13.13;8.73;;;;;;;19.50;61.13;98579.19;5049881;28;20107;-51
2021/07/27 02:20:48;;;;;;;10.90;6.60;;;;;;;19.51;61.44;98580.78;5034718;28;20025;-51
2021/07/27 02:23:15;;;;;;;10.32;6.20;;;;;;;19.77;61.19;98579.00;5034677;28;20037;-51
2021/07/27 02:25:41;;;;;;;10.80;7.82;;;;;;;20.18;60.26;98575.59;5050000;28;20028;-51
2021/07/27 02:28:12;;;;;;;8.80;6.82;;;;;;;20.41;59.22;98563.63;5034625;28;20017;-51
2021/07/27 02:30:49;;;;;;;9.50;5.68;;;;;;;20.62;58.79;98561.75;5034540;28;20407;-51
2021/07/27 02:33:15;;;;;;;8.30;7.50;;;;;;;20.77;58.06;98559.06;5034583;28;20033;-51
2021/07/27 02:35:42;;;;;;;9.05;6.45;;;;;;;20.85;58.00;98555.84;5034462;28;20022;-51
2021/07/27 02:38:08;;;;;;;10.13;6.00;;;;;;;20.93;57.26;98555.28;5033893;28;20022;-51
2021/07/27 02:40:34;;;;;;;9.98;6.32;;;;;;;20.57;57.60;98551.09;5033082;28;20438;-51
2021/07/27 02:43:02;;;;;;;12.73;10.38;;;;;;;20.10;58.62;98553.78;5033095;28;20030;-50
2021/07/27 02:45:28;;;;;;;13.02;7.13;;;;;;;20.14;59.47;98541.50;5034290;28;20104;-50
2021/07/27 02:47:54;;;;;;;8.30;6.97;;;;;;;20.45;58.63;98538.03;5034231;28;20491;-51
2021/07/27 02:50:19;;;;;;;10.82;7.85;;;;;;;20.51;58.34;98537.75;5034123;28;20060;-50
2021/07/27 02:52:46;;;;;;;10.73;6.25;;;;;;;20.48;57.91;98537.47;5034140;28;20521;-51
2021/07/27 02:55:12;;;;;;;10.75;5.72;;;;;;;20.27;57.79;98534.06;5034070;28;20032;-50
2021/07/27 02:57:41;;;;;;;10.68;6.55;;;;;;;19.93;58.65;98537.22;5032800;28;20052;-51
2021/07/27 03:00:11;;;;;;;9.30;6.07;;;;;;;19.56;59.34;98530.22;5033997;28;20021;-50
2021/07/27 03:02:44;;;;;;;8.50;6.22;;;;;;;19.28;60.17;98531.47;5034007;28;20025;-50
2021/07/27 03:05:12;;;;;;;12.98;6.15;;;;;;;19.01;60.92;98529.75;5049311;28;20124;-51
2021/07/27 03:10:17;;;;;;;12.80;6.05;;;;;;;18.85;61.86;98533.41;5033863;28;20029;-51
2021/07/27 03:12:47;;;;;;;8.98;6.07;;;;;;;18.73;62.15;98529.06;5033892;28;20026;-50
2021/07/27 03:15:14;;;;;;;9.52;6.43;;;;;;;18.72;62.59;98529.31;5049096;28;20040;-51
2021/07/27 03:17:40;;;;;;;10.52;8.77;;;;;;;18.37;62.96;98528.00;5033526;28;20052;-50
2021/07/27 03:20:11;;;;;;;14.63;13.20;;;;;;;18.06;64.17;98533.09;5033698;28;20156;-50
2021/07/27 03:22:37;;;;;;;13.77;9.63;;;;;;;17.85;65.31;98528.66;5032370;28;20030;-50
2021/07/27 03:25:05;;;;;;;12.93;8.18;;;;;;;17.65;65.96;98531.91;5033569;28;20028;-51
2021/07/27 03:27:31;;;;;;;8.80;7.07;;;;;;;17.51;66.94;98532.28;5048878;28;20025;-50
2021/07/27 03:29:56;;;;;;;14.77;6.50;;;;;;;17.39;66.90;98541.44;5033394;28;20391;-50
2021/07/27 03:32:22;;;;;;;10.68;8.07;;;;;;;17.57;66.98;98538.44;5033450;28;20113;-50
2021/07/27 03:34:48;;;;;;;11.00;7.97;;;;;;;17.76;66.21;98534.38;5048629;28;20040;-50
2021/07/27 03:37:14;;;;;;;13.60;6.72;;;;;;;17.94;65.61;98532.47;5033404;28;20025;-50
2021/07/27 03:39:40;;;;;;;11.18;8.52;;;;;;;17.95;65.26;98534.06;5033332;28;20022;-50
2021/07/27 03:42:07;;;;;;;12.18;6.65;;;;;;;17.77;65.39;98529.91;5033218;28;20079;-50
2021/07/27 03:44:33;;;;;;;14.25;7.53;;;;;;;17.64;66.05;98536.38;5033223;28;20045;-50
2021/07/27 03:47:05;;;;;;;11.80;6.07;;;;;;;17.62;66.48;98535.03;5033172;28;20510;-51
2021/07/27 03:49:30;;;;;;;11.10;8.02;;;;;;;17.62;66.50;98538.50;5032172;28;20033;-50
2021/07/27 03:52:00;;;;;;;13.38;7.13;;;;;;;17.47;66.73;98543.66;5033036;28;20376;-50
2021/07/27 03:54:31;;;;;;;22.60;15.82;;;;;;;17.66;66.87;98544.09;5033315;28;20022;-51
2021/07/27 03:56:56;;;;;;;23.73;12.98;;;;;;;17.98;65.83;98538.88;5032941;28;20104;-50
2021/07/27 03:59:22;;;;;;;13.35;6.97;;;;;;;17.88;65.49;98536.13;5032885;28;20113;-50
2021/07/27 04:01:51;;;;;;;14.10;7.32;;;;;;;17.69;66.21;98535.66;5032802;28;20025;-50
2021/07/27 04:04:19;;;;;;;9.43;6.07;;;;;;;17.84;66.04;98529.72;5048111;28;20056;-50
2021/07/27 04:06:46;;;;;;;9.23;8.23;;;;;;;18.02;65.54;98534.66;5048009;28;20529;-50
2021/07/27 04:09:12;;;;;;;15.07;7.85;;;;;;;18.22;64.87;98533.22;5032699;28;20179;-51
2021/07/27 04:11:38;;;;;;;9.75;8.60;;;;;;;18.24;64.61;98531.13;5048002;28;20525;-51
2021/07/27 04:14:04;;;;;;;15.05;9.95;;;;;;;18.06;64.97;98537.59;5032657;28;20045;-50
2021/07/27 04:16:33;;;;;;;10.50;7.50;;;;;;;18.10;65.04;98536.06;5032628;28;20026;-51
2021/07/27 04:18:58;;;;;;;11.13;8.60;;;;;;;18.13;64.78;98536.34;5032400;28;20419;-51
2021/07/27 04:21:27;;;;;;;25.05;22.75;;;;;;;18.10;64.69;98531.53;5032463;28;20021;-50
2021/07/27 04:23:53;;;;;;;15.60;11.48;;;;;;;18.05;64.66;98528.84;5047732;28;20598;-50
2021/07/27 04:26:19;;;;;;;22.10;19.75;;;;;;;18.03;64.78;98524.81;5032450;28;20104;-50
2021/07/27 04:28:44;;;;;;;16.20;8.30;;;;;;;17.93;65.13;98518.38;5047682;28;20026;-50
2021/07/27 04:31:10;;;;;;;15.00;8.10;;;;;;;17.90;65.21;98524.19;5032247;28;20028;-50
2021/07/27 04:33:37;;;;;;;10.63;7.80;;;;;;;17.99;65.11;98523.72;5032283;28;20112;-50
2021/07/27 04:36:03;;;;;;;10.65;7.13;;;;;;;18.08;64.64;98517.72;5032195;28;20507;-50
2021/07/27 04:38:29;;;;;;;12.02;6.53;;;;;;;18.14;64.33;98510.59;5032185;28;20535;-50
2021/07/27 04:40:55;;;;;;;14.15;8.10;;;;;;;18.18;64.09;98514.34;5047445;28;20076;-50
2021/07/27 04:43:29;;;;;;;11.35;6.30;;;;;;;18.32;63.79;98509.38;5047451;28;20454;-50
2021/07/27 04:46:02;;;;;;;12.98;9.75;;;;;;;18.40;63.75;98510.78;5047386;28;20022;-50
2021/07/27 04:48:28;;;;;;;16.98;6.68;;;;;;;18.49;63.00;98499.41;5030796;28;20060;-50
2021/07/27 04:50:54;;;;;;;12.15;6.20;;;;;;;18.64;62.75;98506.66;5031930;28;20427;-50
2021/07/27 04:53:24;;;;;;;9.85;6.60;;;;;;;18.72;62.48;98508.06;5047368;28;20029;-50
2021/07/27 04:55:51;;;;;;;12.18;7.53;;;;;;;18.75;62.61;98505.69;5032238;28;20026;-50
2021/07/27 04:58:16;;;;;;;10.20;6.10;;;;;;;18.79;62.44;98505.97;5032026;28;20025;-51
2021/07/27 05:00:43;;;;;;;9.45;6.63;;;;;;;18.73;62.44;98502.47;5030353;28;20070;-50
2021/07/27 05:03:08;;;;;;;12.00;9.77;;;;;;;18.77;62.35;98502.75;5031921;28;20076;-50
2021/07/27 05:05:34;;;;;;;30.55;27.30;;;;;;;19.12;62.09;98507.47;5031852;28;20555;-50
2021/07/27 05:08:00;;;;;;;11.75;6.93;;;;;;;19.39;61.11;98503.03;5030551;28;20026;-51
2021/07/27 05:10:26;;;;;;;20.98;13.82;;;;;;;19.51;60.71;98492.94;5031741;28;20044;-50
2021/07/27 05:12:52;;;;;;;17.27;12.77;;;;;;;19.81;60.62;98494.06;5031805;28;20026;-51
2021/07/27 05:15:18;;;;;;;14.15;12.32;;;;;;;20.32;58.99;98496.72;5031763;28;20068;-50
2021/07/27 05:17:49;;;;;;;10.18;6.88;;;;;;;20.55;57.88;98490.81;5031532;28;20557;-50
2021/07/27 05:20:15;;;;;;;36.92;19.15;;;;;;;20.78;58.04;98488.66;5031763;28;20025;-51
2021/07/27 05:22:40;;;;;;;12.18;8.45;;;;;;;21.24;57.01;98488.47;5031728;28;20018;-50
2021/07/27 05:25:06;;;;;;;25.48;20.95;;;;;;;21.57;56.48;98478.16;5031717;28;20057;-51
2021/07/27 05:27:34;;;;;;;21.20;11.07;;;;;;;22.02;55.38;98476.22;5031688;28;20309;-51
2021/07/27 05:30:00;;;;;;;31.02;20.23;;;;;;;22.37;54.34;98486.88;5046803;28;20061;-51
2021/07/27 05:32:29;;;;;;;47.80;35.83;;;;;;;22.70;53.47;98487.88;5046921;28;20103;-51
2021/07/27 05:34:54;;;;;;;38.72;28.67;;;;;;;23.02;52.49;98489.13;5031562;28;20029;-51
2021/07/27 05:37:21;;;;;;;21.63;8.77;;;;;;;23.23;52.18;98487.00;5031840;28;20474;-51
2021/07/27 05:39:47;;;;;;;30.67;19.88;;;;;;;23.38;51.76;98488.66;5031516;28;20116;-51
2021/07/27 05:42:12;;;;;;;24.98;10.10;;;;;;;23.61;51.07;98497.72;5046819;28;20026;-51
2021/07/27 05:44:38;;;;;;;28.15;14.40;;;;;;;23.76;50.39;98481.41;5031475;28;20075;-51
2021/07/27 05:47:04;;;;;;;23.88;8.85;;;;;;;23.92;49.96;98482.00;5046682;28;20029;-51
2021/07/27 05:49:33;;;;;;;14.80;7.25;;;;;;;24.07;49.33;98479.06;5031423;28;20025;-51
2021/07/27 05:51:59;;;;;;;26.00;10.27;;;;;;;24.32;50.55;98477.03;5031438;28;20018;-51
2021/07/27 05:54:25;;;;;;;21.33;9.30;;;;;;;24.98;49.67;98482.25;5031404;28;20092;-51
2021/07/27 05:56:54;;;;;;;39.58;7.97;;;;;;;25.82;46.99;98479.06;5031338;28;20025;-51
2021/07/27 05:59:20;;;;;;;34.15;9.02;;;;;;;26.60;44.67;98476.06;5031285;28;20029;-51
2021/07/27 06:01:48;;;;;;;29.17;8.55;;;;;;;27.06;43.20;98482.03;5031323;28;20133;-50
2021/07/27 06:04:14;;;;;;;41.58;8.75;;;;;;;27.74;41.06;98476.22;5031319;28;20442;-51
2021/07/27 06:06:40;;;;;;;140.82;94.90;;;;;;;28.59;39.82;98479.06;5031250;28;20030;-51
2021/07/27 06:09:10;;;;;;;59.78;38.67;;;;;;;29.58;37.75;98479.72;5031316;28;20349;-51
2021/07/27 06:11:37;;;;;;;67.47;43.83;;;;;;;29.99;36.84;98476.19;5031140;28;20075;-51
2021/07/27 06:14:04;;;;;;;71.85;33.55;;;;;;;30.92;35.55;98474.97;5032235;28;20034;-51
2021/07/27 06:16:30;;;;;;;49.20;10.35;;;;;;;31.69;34.04;98476.81;5034843;28;20025;-51
2021/07/27 06:18:56;;;;;;;63.47;9.85;;;;;;;32.56;32.54;98486.06;5049934;28;20110;-51
2021/07/27 06:21:22;;;;;;;43.83;7.90;;;;;;;33.37;31.10;98480.94;5050084;28;20627;-51
2021/07/27 06:23:48;;;;;;;44.65;9.18;;;;;;;33.87;30.66;98478.44;5034703;28;20034;-51
2021/07/27 06:26:14;;;;;;;31.67;10.38;;;;;;;33.86;30.21;98484.22;5034691;28;20021;-51
2021/07/27 06:28:39;;;;;;;21.30;6.22;;;;;;;33.08;30.80;98484.94;5034570;28;20044;-51
2021/07/27 06:31:13;;;;;;;21.75;8.65;;;;;;;32.50;32.25;98482.00;5034493;28;20083;-51
2021/07/27 06:33:43;;;;;;;16.25;6.05;;;;;;;33.07;30.93;98475.22;5034564;28;20092;-51
2021/07/27 06:36:09;;;;;;;45.47;9.30;;;;;;;33.43;30.87;98484.16;5033159;28;20017;-51
2021/07/27 06:38:35;;;;;;;17.35;6.57;;;;;;;33.65;30.58;98477.25;5049734;28;20025;-52
2021/07/27 06:41:04;;;;;;;11.82;6.22;;;;;;;33.14;31.17;98485.47;5034421;28;20061;-52
2021/07/27 06:43:30;;;;;;;15.85;6.90;;;;;;;32.88;31.48;98483.31;5034441;28;20021;-51
2021/07/27 06:45:56;;;;;;;20.10;7.65;;;;;;;32.51;32.20;98481.66;5034347;28;20079;-52
2021/07/27 06:48:25;;;;;;;13.93;6.25;;;;;;;32.55;31.88;98488.00;5049645;28;20030;-51
2021/07/27 06:50:52;;;;;;;11.32;6.00;;;;;;;32.78;31.35;98482.75;5049444;28;20014;-51
2021/07/27 06:53:19;;;;;;;10.82;5.88;;;;;;;33.08;30.95;98489.59;5034525;28;20381;-51
2021/07/27 06:55:45;;;;;;;22.45;8.88;;;;;;;33.53;30.60;98480.84;5034161;28;20049;-51
2021/07/27 06:58:10;;;;;;;38.45;10.02;;;;;;;33.23;30.66;98484.13;5049403;28;20028;-51
2021/07/27 07:00:40;;;;;;;14.90;6.82;;;;;;;32.92;31.03;98485.00;5034076;28;20034;-51
2021/07/27 07:03:09;;;;;;;28.00;7.35;;;;;;;32.98;30.69;98482.78;5033996;28;20026;-51
2021/07/27 07:05:35;;;;;;;19.17;6.55;;;;;;;32.80;31.33;98482.38;5032616;28;20439;-51
2021/07/27 07:08:02;;;;;;;20.95;6.97;;;;;;;32.50;31.80;98490.16;5049245;28;20491;-51
2021/07/27 07:10:28;;;;;;;22.40;6.43;;;;;;;32.60;31.32;98481.53;5033781;28;20036;-51
2021/07/27 07:12:54;;;;;;;25.35;7.35;;;;;;;32.25;31.95;98482.19;5034095;28;20029;-51
2021/07/27 07:15:20;;;;;;;28.42;7.65;;;;;;;31.82;32.66;98489.97;5033829;28;20100;-51
2021/07/27 07:17:46;;;;;;;17.25;5.82;;;;;;;31.62;33.12;98488.28;5033495;28;20124;-51
2021/07/27 07:20:12;;;;;;;28.95;6.65;;;;;;;31.57;33.32;98491.22;5033752;28;20037;-50
2021/07/27 07:22:38;;;;;;;21.70;6.32;;;;;;;31.05;34.12;98495.50;5033628;28;20438;-52
2021/07/27 07:25:05;;;;;;;17.02;5.70;;;;;;;30.58;34.56;98504.06;5048848;28;20025;-51
2021/07/27 07:27:30;;;;;;;15.10;5.82;;;;;;;30.79;34.59;98499.34;5033588;28;20460;-51
2021/07/27 07:29:59;;;;;;;25.00;6.00;;;;;;;31.69;32.89;98502.00;5033473;28;20530;-51
2021/07/27 07:32:26;;;;;;;14.07;5.60;;;;;;;32.09;31.86;98498.47;5033440;28;20018;-51
2021/07/27 07:34:52;;;;;;;25.77;6.80;;;;;;;32.56;31.20;98495.03;5048620;28;20132;-51
2021/07/27 07:37:18;;;;;;;16.25;5.72;;;;;;;32.48;31.60;98497.88;5033391;28;20430;-51
2021/07/27 07:39:44;;;;;;;18.35;5.55;;;;;;;32.35;31.67;98497.19;5033341;28;20075;-51
2021/07/27 07:42:09;;;;;;;17.60;5.88;;;;;;;32.83;31.63;98503.41;5033229;28;20029;-51
2021/07/27 07:44:36;;;;;;;27.10;6.80;;;;;;;33.39;30.51;98494.97;5033280;28;20479;-51
2021/07/27 07:47:03;;;;;;;14.93;5.63;;;;;;;33.78;30.47;98496.91;5033192;28;20028;-51
2021/07/27 07:49:29;;;;;;;14.63;5.35;;;;;;;34.28;28.97;98497.06;5033068;28;20071;-49
2021/07/27 07:51:56;;;;;;;22.10;6.25;;;;;;;34.78;28.56;98487.78;5031744;28;20018;-49
2021/07/27 07:54:26;;;;;;;19.05;7.03;;;;;;;35.67;27.18;98481.94;5033107;28;20021;-49
2021/07/27 07:56:52;;;;;;;17.27;5.78;;;;;;;36.42;26.85;98484.63;5048295;28;20095;-49
2021/07/27 07:59:18;;;;;;;20.23;5.60;;;;;;;37.44;25.16;98478.66;5032971;28;20025;-51
2021/07/27 08:01:45;;;;;;;45.03;10.52;;;;;;;38.62;23.64;98478.88;5032847;28;20021;-52
2021/07/27 08:04:12;;;;;;;15.63;7.78;;;;;;;39.47;22.62;98471.59;5032898;28;20075;-51
2021/07/27 08:06:38;;;;;;;96.35;10.95;;;;;;;39.87;22.11;98472.19;5032798;28;20045;-51
2021/07/27 08:09:04;;;;;;;14.82;4.88;;;;;;;39.74;22.30;98468.31;5048130;28;20095;-52
2021/07/27 08:11:30;;;;;;;31.55;9.35;;;;;;;39.09;22.74;98463.09;5032588;28;20361;-52
2021/07/27 08:13:58;;;;;;;33.03;6.93;;;;;;;38.26;23.32;98465.16;5032691;28;20036;-52
2021/07/27 08:16:24;;;;;;;32.72;7.07;;;;;;;37.01;24.83;98467.47;5032618;28;20029;-52
2021/07/27 08:18:49;;;;;;;25.25;6.20;;;;;;;36.38;25.80;98470.16;5032353;28;20046;-52
2021/07/27 08:21:15;;;;;;;208.82;51.78;;;;;;;37.46;24.87;98462.63;5032494;28;20017;-52
2021/07/27 08:23:48;;;;;;;161.73;15.10;;;;;;;38.61;23.08;98455.34;5032385;28;20144;-52
2021/07/27 08:26:14;;;;;;;325.15;26.55;;;;;;;39.70;22.05;98460.09;5032481;28;20090;-51
2021/07/27 08:28:40;;;;;;;117.05;12.20;;;;;;;40.23;21.46;98457.41;5032452;28;20079;-52
2021/07/27 08:31:06;;;;;;;101.88;42.10;;;;;;;40.17;21.28;98461.75;5030957;28;20028;-52
2021/07/27 08:33:31;;;;;;;87.05;11.55;;;;;;;39.88;21.70;98465.50;5047605;28;20030;-52
2021/07/27 08:35:57;;;;;;;71.70;10.05;;;;;;;40.29;21.70;98453.81;5031828;28;20014;-52
2021/07/27 08:38:24;;;;;;;68.28;21.17;;;;;;;40.65;21.06;98464.50;5032275;28;20037;-51
2021/07/27 08:40:50;;;;;;;31.88;6.20;;;;;;;41.09;20.63;98456.56;5032212;28;20060;-52
2021/07/27 08:43:17;;;;;;;31.30;6.60;;;;;;;41.86;19.67;98460.72;5032176;28;20040;-51
2021/07/27 08:45:44;;;;;;;85.35;11.02;;;;;;;42.43;19.02;98454.28;5032158;28;20053;-51
2021/07/27 08:48:10;;;;;;;147.27;16.73;;;;;;;41.89;19.50;98452.38;5032107;28;20083;-52
2021/07/27 08:50:35;;;;;;;49.63;14.20;;;;;;;41.75;19.53;98466.38;5031996;28;20418;-52
2021/07/27 08:53:01;;;;;;;39.20;9.80;;;;;;;41.66;19.39;98460.63;5032073;28;20107;-52
2021/07/27 08:55:27;;;;;;;86.75;10.93;;;;;;;41.45;19.83;98464.41;5031933;28;20064;-52
2021/07/27 08:57:58;;;;;;;60.92;7.35;;;;;;;41.11;20.20;98454.97;5047268;28;20124;-52
2021/07/27 09:00:25;;;;;;;37.38;6.53;;;;;;;41.48;19.84;98447.84;5031909;28;20091;-52
2021/07/27 09:02:50;;;;;;;12.60;4.00;;;;;;;42.31;19.31;98444.63;5030615;28;20046;-52
2021/07/27 09:05:20;;;;;;;8.93;4.30;;;;;;;42.77;18.11;98445.03;5032150;28;20415;-52
2021/07/27 09:07:46;;;;;;;8.48;4.32;;;;;;;43.23;18.01;98442.56;5031822;28;20033;-52
2021/07/27 09:10:13;;;;;;;13.65;5.32;;;;;;;42.81;18.32;98440.22;5031728;28;20060;-52
2021/07/27 09:12:39;;;;;;;30.25;6.95;;;;;;;41.86;19.38;98444.97;5031788;28;20033;-52
2021/07/27 09:15:06;;;;;;;7.15;4.70;;;;;;;41.78;19.28;98443.50;5031794;28;20025;-52
2021/07/27 09:17:32;;;;;;;8.77;4.38;;;;;;;41.98;19.24;98440.03;5031464;28;20045;-52
2021/07/27 09:19:58;;;;;;;11.10;4.25;;;;;;;42.48;18.43;98440.03;5031804;28;20060;-52
2021/07/27 09:22:24;;;;;;;5.82;3.80;;;;;;;42.67;18.17;98443.25;5031659;28;20024;-52
2021/07/27 09:24:49;;;;;;;18.45;5.55;;;;;;;42.38;18.97;98441.00;5031679;28;20026;-52
2021/07/27 09:27:15;;;;;;;6.75;4.20;;;;;;;41.95;18.87;98444.41;5031622;28;20104;-52
2021/07/27 09:29:46;;;;;;;10.70;4.80;;;;;;;41.75;19.44;98443.56;5046858;28;20041;-52
2021/07/27 09:32:20;;;;;;;10.45;4.32;;;;;;;42.16;19.11;98432.31;5031632;28;20053;-51
2021/07/27 09:34:47;;;;;;;12.75;4.45;;;;;;;43.22;17.93;98427.94;5031585;28;20405;-52
2021/07/27 09:37:13;;;;;;;11.85;4.25;;;;;;;43.84;17.57;98430.94;5046790;28;20030;-52
2021/07/27 09:39:39;;;;;;;13.10;4.35;;;;;;;44.19;16.92;98425.78;5031491;28;20028;-51
2021/07/27 09:42:10;;;;;;;7.22;3.85;;;;;;;44.48;16.70;98416.75;5031568;28;20032;-51
2021/07/27 09:44:38;;;;;;;21.20;5.40;;;;;;;44.39;17.25;98424.88;5031576;28;20033;-51
2021/07/27 09:47:04;;;;;;;24.38;5.70;;;;;;;44.18;17.39;98427.00;5031513;28;20033;-52
2021/07/27 09:49:31;;;;;;;13.20;4.68;;;;;;;43.57;17.68;98428.41;5034642;28;20395;-51
2021/07/27 09:51:57;;;;;;;11.02;4.15;;;;;;;42.60;18.25;98430.38;5034037;28;20028;-52
2021/07/27 09:54:25;;;;;;;8.80;4.43;;;;;;;41.37;19.28;98429.91;5035248;28;20033;-51
2021/07/27 09:56:54;;;;;;;15.82;7.28;;;;;;;40.90;20.03;98427.69;5050594;28;20025;-51
2021/07/27 09:59:23;;;;;;;8.85;4.18;;;;;;;40.86;20.48;98429.72;5035279;28;20095;-51
2021/07/27 10:02:04;;;;;;;16.83;4.70;;;;;;;41.17;20.07;98424.22;5035246;28;20021;-51
2021/07/27 10:04:37;;;;;;;8.13;4.55;;;;;;;42.16;19.24;98418.50;5035229;28;20025;-52
2021/07/27 10:07:04;;;;;;;8.40;4.75;;;;;;;42.60;18.60;98418.53;5035198;28;20031;-52
2021/07/27 10:09:35;;;;;;;9.40;4.32;;;;;;;42.47;18.58;98410.09;5035018;28;20438;-51
2021/07/27 10:12:08;;;;;;;10.95;4.75;;;;;;;42.27;19.16;98410.03;5050297;28;20056;-51
2021/07/27 10:14:45;;;;;;;10.40;4.95;;;;;;;42.14;19.32;98415.41;5034974;28;20033;-51
2021/07/27 10:17:12;;;;;;;13.55;5.38;;;;;;;41.38;19.84;98415.72;5034710;28;20114;-51
2021/07/27 10:19:40;;;;;;;18.83;7.28;;;;;;;41.09;20.36;98415.28;5034898;28;20067;-51
2021/07/27 10:22:08;;;;;;;12.80;4.97;;;;;;;40.91;20.32;98415.50;5034825;28;20372;-52
2021/07/27 10:24:41;;;;;;;11.95;6.05;;;;;;;40.30;21.17;98416.09;5034781;28;20021;-52
2021/07/27 10:27:21;;;;;;;7.15;4.43;;;;;;;39.50;21.92;98409.59;5034855;28;20396;-52
2021/07/27 10:30:10;;;;;;;9.68;5.13;;;;;;;39.88;21.91;98402.28;5034700;28;20033;-51
2021/07/27 10:32:36;;;;;;;8.13;4.28;;;;;;;40.67;20.82;98401.59;5034711;28;20072;-52
2021/07/27 10:35:26;;;;;;;18.13;5.05;;;;;;;40.95;20.54;98399.72;5034614;28;20057;-52
2021/07/27 10:37:53;;;;;;;17.55;5.53;;;;;;;41.34;20.17;98403.19;5026066;28;20069;-51
2021/07/27 10:40:30;;;;;;;16.55;6.32;;;;;;;41.54;20.07;98403.31;5034527;28;20108;-52
2021/07/27 10:42:56;;;;;;;10.55;4.47;;;;;;;41.51;20.00;98397.44;5034436;28;20129;-52
2021/07/27 10:45:22;;;;;;;9.45;4.57;;;;;;;41.76;20.16;98399.06;5034341;28;20021;-52
2021/07/27 10:47:50;;;;;;;19.33;6.57;;;;;;;42.08;19.84;98397.78;5034372;28;20075;-51
2021/07/27 10:50:15;;;;;;;18.42;6.13;;;;;;;42.13;19.55;98399.25;5034300;28;20021;-51
2021/07/27 10:52:49;;;;;;;19.00;6.50;;;;;;;41.87;19.82;98393.34;5034252;28;20025;-53
2021/07/27 10:55:17;;;;;;;9.45;4.75;;;;;;;41.88;19.71;98389.41;5032928;28;20029;-52
2021/07/27 10:57:52;;;;;;;30.70;5.63;;;;;;;41.91;19.48;98396.84;5049505;28;20491;-52
2021/07/27 11:00:29;;;;;;;6.75;4.30;;;;;;;41.58;19.77;98398.53;5033725;28;20017;-52
2021/07/27 11:02:58;;;;;;;11.85;5.28;;;;;;;41.62;19.86;98391.78;5034143;28;20025;-51
2021/07/27 11:05:29;;;;;;;14.85;7.15;;;;;;;41.48;20.00;98383.69;5034017;28;20022;-52
2021/07/27 11:07:55;;;;;;;20.52;7.03;;;;;;;41.57;19.93;98380.41;5034044;28;20090;-52
2021/07/27 11:10:23;;;;;;;15.48;5.10;;;;;;;41.38;19.92;98381.88;5033881;28;20380;-52
2021/07/27 11:12:55;;;;;;;11.68;4.75;;;;;;;40.90;20.54;98378.16;5033943;28;20083;-52
2021/07/27 11:15:26;;;;;;;6.85;4.13;;;;;;;41.31;20.09;98380.00;5033733;28;20102;-52
2021/07/27 11:17:56;;;;;;;36.97;6.88;;;;;;;41.27;20.07;98390.28;5033571;28;20049;-52
2021/07/27 11:20:37;;;;;;;12.88;5.95;;;;;;;41.08;20.17;98378.69;5033793;28;20036;-52
2021/07/27 11:23:16;;;;;;;9.40;4.32;;;;;;;41.19;19.85;98370.31;5033685;28;20403;-52
2021/07/27 11:25:42;;;;;;;11.63;5.05;;;;;;;40.78;20.43;98378.69;5033688;28;20081;-53
2021/07/27 11:28:13;;;;;;;8.32;4.57;;;;;;;39.92;21.15;98370.09;5033868;28;20489;-51
2021/07/27 11:30:41;;;;;;;11.60;4.68;;;;;;;38.81;22.29;98375.38;5033426;28;20399;-52
2021/07/27 11:33:12;;;;;;;12.25;4.57;;;;;;;37.91;22.95;98368.03;5033525;28;20106;-51
2021/07/27 11:35:52;;;;;;;12.40;5.00;;;;;;;37.20;23.89;98367.91;5033438;28;20067;-52
2021/07/27 11:38:33;;;;;;;26.58;6.28;;;;;;;36.57;24.97;98371.50;5033409;28;20029;-52
2021/07/27 11:41:28;;;;;;;185.77;21.80;;;;;;;36.31;25.94;98364.31;5033331;28;20040;-51
2021/07/27 11:43:57;;;;;;;193.45;20.63;;;;;;;37.22;25.36;98360.88;5031514;28;20045;-52
2021/07/27 11:46:38;;;;;;;229.77;24.63;;;;;;;38.49;23.39;98354.28;5033128;28;20042;-51
2021/07/27 11:49:08;;;;;;;58.05;9.45;;;;;;;39.34;22.67;98346.88;5033219;28;20052;-51
2021/07/27 11:51:34;;;;;;;28.77;5.47;;;;;;;39.90;22.10;98344.94;5048312;28;20053;-51